sensor_id;sensor_type;location;lat;lon;timestamp;P1;durP1;ratioP1;P2;durP2;ratioP2
22363;SDS011;11349;53.412;-1.328;2024-02-23T00:02:18;4.90;;;1.40;;
22363;SDS011;11349;53.412;-1.328;2024-02-23T00:04:44;6.65;;;1.23;;
22363;SDS011;11349;53.412;-1.328;2024-02-23T00:07:10;5.78;;;1.30;;
22363;SDS011;11349;53.412;-1.328;2024-02-23T00:09:36;5.32;;;1.40;;
22363;SDS011;11349;53.412;-1.328;2024-02-23T00:12:02;4.63;;;1.00;;
22363;SDS011;11349;53.412;-1.328;2024-02-23T00:14:28;4.72;;;1.55;;
22363;SDS011;11349;53.412;-1.328;2024-02-23T00:16:55;5.03;;;1.20;;
22363;SDS011;11349;53.412;-1.328;2024-02-23T00:19:22;9.48;;;1.77;;
22363;SDS011;11349;53.412;-1.328;2024-02-23T00:21:49;6.40;;;1.50;;
22363;SDS011;11349;53.412;-1.328;2024-02-23T00:24:18;7.82;;;1.27;;
22363;SDS011;11349;53.412;-1.328;2024-02-23T00:26:47;6.43;;;1.42;;
22363;SDS011;11349;53.412;-1.328;2024-02-23T00:29:13;5.32;;;1.23;;
22363;SDS011;11349;53.412;-1.328;2024-02-23T00:31:39;5.70;;;1.50;;
22363;SDS011;11349;53.412;-1.328;2024-02-23T00:34:10;6.50;;;1.35;;
22363;SDS011;11349;53.412;-1.328;2024-02-23T00:36:39;5.60;;;1.42;;
22363;SDS011;11349;53.412;-1.328;2024-02-23T00:39:05;4.88;;;1.30;;
22363;SDS011;11349;53.412;-1.328;2024-02-23T00:41:32;6.55;;;1.30;;
22363;SDS011;11349;53.412;-1.328;2024-02-23T00:43:58;5.90;;;2.63;;
22363;SDS011;11349;53.412;-1.328;2024-02-23T00:46:24;5.85;;;1.20;;
22363;SDS011;11349;53.412;-1.328;2024-02-23T00:48:50;8.18;;;1.48;;
22363;SDS011;11349;53.412;-1.328;2024-02-23T00:51:15;4.95;;;1.42;;
22363;SDS011;11349;53.412;-1.328;2024-02-23T00:53:41;5.35;;;1.30;;
22363;SDS011;11349;53.412;-1.328;2024-02-23T00:56:07;5.05;;;1.23;;
22363;SDS011;11349;53.412;-1.328;2024-02-23T00:58:33;5.40;;;1.75;;
22363;SDS011;11349;53.412;-1.328;2024-02-23T01:00:59;5.50;;;1.60;;
22363;SDS011;11349;53.412;-1.328;2024-02-23T01:03:25;9.13;;;2.92;;
22363;SDS011;11349;53.412;-1.328;2024-02-23T01:05:51;5.97;;;1.70;;
22363;SDS011;11349;53.412;-1.328;2024-02-23T01:08:17;7.53;;;1.40;;
22363;SDS011;11349;53.412;-1.328;2024-02-23T01:10:42;3.72;;;1.17;;
22363;SDS011;11349;53.412;-1.328;2024-02-23T01:13:08;6.38;;;1.50;;
22363;SDS011;11349;53.412;-1.328;2024-02-23T01:15:34;11.23;;;1.60;;
22363;SDS011;11349;53.412;-1.328;2024-02-23T01:18:00;7.82;;;1.50;;
22363;SDS011;11349;53.412;-1.328;2024-02-23T01:20:26;6.82;;;1.50;;
22363;SDS011;11349;53.412;-1.328;2024-02-23T01:22:51;5.90;;;1.90;;
22363;SDS011;11349;53.412;-1.328;2024-02-23T01:25:17;6.70;;;1.88;;
22363;SDS011;11349;53.412;-1.328;2024-02-23T01:27:43;5.78;;;1.67;;
22363;SDS011;11349;53.412;-1.328;2024-02-23T01:30:09;4.60;;;1.83;;
22363;SDS011;11349;53.412;-1.328;2024-02-23T01:32:35;7.30;;;1.58;;
22363;SDS011;11349;53.412;-1.328;2024-02-23T01:35:03;6.78;;;1.58;;
22363;SDS011;11349;53.412;-1.328;2024-02-23T01:37:30;5.20;;;1.20;;
22363;SDS011;11349;53.412;-1.328;2024-02-23T01:39:56;7.65;;;1.70;;
22363;SDS011;11349;53.412;-1.328;2024-02-23T01:42:21;9.40;;;1.77;;
22363;SDS011;11349;53.412;-1.328;2024-02-23T01:44:48;8.38;;;1.40;;
22363;SDS011;11349;53.412;-1.328;2024-02-23T01:47:15;5.70;;;1.20;;
22363;SDS011;11349;53.412;-1.328;2024-02-23T01:49:41;9.93;;;2.03;;
22363;SDS011;11349;53.412;-1.328;2024-02-23T01:52:07;9.35;;;1.80;;
22363;SDS011;11349;53.412;-1.328;2024-02-23T01:54:33;6.72;;;1.40;;
22363;SDS011;11349;53.412;-1.328;2024-02-23T01:56:59;9.73;;;1.50;;
22363;SDS011;11349;53.412;-1.328;2024-02-23T01:59:26;3.83;;;1.25;;
22363;SDS011;11349;53.412;-1.328;2024-02-23T02:01:52;5.57;;;1.52;;
22363;SDS011;11349;53.412;-1.328;2024-02-23T02:04:18;7.00;;;1.38;;
22363;SDS011;11349;53.412;-1.328;2024-02-23T02:06:45;3.63;;;1.02;;
22363;SDS011;11349;53.412;-1.328;2024-02-23T02:09:11;7.63;;;1.50;;
22363;SDS011;11349;53.412;-1.328;2024-02-23T02:11:49;4.72;;;1.30;;
22363;SDS011;11349;53.412;-1.328;2024-02-23T02:14:16;6.95;;;1.40;;
22363;SDS011;11349;53.412;-1.328;2024-02-23T02:16:42;10.18;;;1.88;;
22363;SDS011;11349;53.412;-1.328;2024-02-23T02:19:11;12.80;;;1.63;;
22363;SDS011;11349;53.412;-1.328;2024-02-23T02:21:38;5.22;;;1.15;;
22363;SDS011;11349;53.412;-1.328;2024-02-23T02:24:05;7.88;;;1.73;;
22363;SDS011;11349;53.412;-1.328;2024-02-23T02:26:31;5.20;;;1.45;;
22363;SDS011;11349;53.412;-1.328;2024-02-23T02:28:57;6.03;;;1.33;;
22363;SDS011;11349;53.412;-1.328;2024-02-23T02:31:23;7.00;;;1.30;;
22363;SDS011;11349;53.412;-1.328;2024-02-23T02:33:48;6.75;;;1.33;;
22363;SDS011;11349;53.412;-1.328;2024-02-23T02:36:14;6.05;;;1.35;;
22363;SDS011;11349;53.412;-1.328;2024-02-23T02:38:41;6.32;;;1.20;;
22363;SDS011;11349;53.412;-1.328;2024-02-23T02:41:08;7.40;;;1.60;;
22363;SDS011;11349;53.412;-1.328;2024-02-23T02:43:34;7.15;;;1.60;;
22363;SDS011;11349;53.412;-1.328;2024-02-23T02:45:59;6.03;;;2.15;;
22363;SDS011;11349;53.412;-1.328;2024-02-23T02:48:25;8.05;;;2.03;;
22363;SDS011;11349;53.412;-1.328;2024-02-23T02:50:51;7.95;;;1.50;;
22363;SDS011;11349;53.412;-1.328;2024-02-23T02:53:17;8.20;;;1.65;;
22363;SDS011;11349;53.412;-1.328;2024-02-23T02:55:43;5.97;;;1.33;;
22363;SDS011;11349;53.412;-1.328;2024-02-23T02:58:11;9.65;;;1.60;;
22363;SDS011;11349;53.412;-1.328;2024-02-23T03:00:38;6.25;;;1.40;;
22363;SDS011;11349;53.412;-1.328;2024-02-23T03:03:03;7.70;;;1.20;;
22363;SDS011;11349;53.412;-1.328;2024-02-23T03:05:29;6.35;;;1.25;;
22363;SDS011;11349;53.412;-1.328;2024-02-23T03:07:55;4.97;;;1.13;;
22363;SDS011;11349;53.412;-1.328;2024-02-23T03:10:21;4.28;;;1.38;;
22363;SDS011;11349;53.412;-1.328;2024-02-23T03:12:46;7.75;;;1.85;;
22363;SDS011;11349;53.412;-1.328;2024-02-23T03:15:12;8.52;;;1.98;;
22363;SDS011;11349;53.412;-1.328;2024-02-23T03:17:38;8.40;;;1.75;;
22363;SDS011;11349;53.412;-1.328;2024-02-23T03:20:04;5.88;;;1.17;;
22363;SDS011;11349;53.412;-1.328;2024-02-23T03:22:34;8.00;;;2.50;;
22363;SDS011;11349;53.412;-1.328;2024-02-23T03:25:03;7.75;;;1.10;;
22363;SDS011;11349;53.412;-1.328;2024-02-23T03:27:33;7.32;;;1.30;;
22363;SDS011;11349;53.412;-1.328;2024-02-23T03:30:03;7.78;;;1.48;;
22363;SDS011;11349;53.412;-1.328;2024-02-23T03:32:30;10.80;;;1.40;;
22363;SDS011;11349;53.412;-1.328;2024-02-23T03:35:05;7.25;;;1.55;;
22363;SDS011;11349;53.412;-1.328;2024-02-23T03:37:32;5.10;;;1.00;;
22363;SDS011;11349;53.412;-1.328;2024-02-23T03:39:57;5.97;;;1.35;;
22363;SDS011;11349;53.412;-1.328;2024-02-23T03:42:24;6.32;;;1.17;;
22363;SDS011;11349;53.412;-1.328;2024-02-23T03:44:51;6.07;;;1.15;;
22363;SDS011;11349;53.412;-1.328;2024-02-23T03:47:17;6.13;;;1.88;;
22363;SDS011;11349;53.412;-1.328;2024-02-23T03:49:42;7.05;;;1.40;;
22363;SDS011;11349;53.412;-1.328;2024-02-23T03:52:08;7.20;;;1.60;;
22363;SDS011;11349;53.412;-1.328;2024-02-23T03:54:34;6.25;;;1.33;;
22363;SDS011;11349;53.412;-1.328;2024-02-23T03:56:59;6.32;;;1.25;;
22363;SDS011;11349;53.412;-1.328;2024-02-23T03:59:25;4.15;;;1.10;;
22363;SDS011;11349;53.412;-1.328;2024-02-23T04:01:51;8.02;;;1.70;;
22363;SDS011;11349;53.412;-1.328;2024-02-23T04:04:17;8.23;;;1.55;;
22363;SDS011;11349;53.412;-1.328;2024-02-23T04:06:42;4.60;;;1.25;;
22363;SDS011;11349;53.412;-1.328;2024-02-23T04:09:08;6.63;;;1.38;;
22363;SDS011;11349;53.412;-1.328;2024-02-23T04:11:34;4.18;;;1.00;;
22363;SDS011;11349;53.412;-1.328;2024-02-23T04:13:59;4.40;;;1.13;;
22363;SDS011;11349;53.412;-1.328;2024-02-23T04:16:25;5.93;;;1.33;;
22363;SDS011;11349;53.412;-1.328;2024-02-23T04:18:52;5.47;;;1.02;;
22363;SDS011;11349;53.412;-1.328;2024-02-23T04:21:18;6.15;;;1.02;;
22363;SDS011;11349;53.412;-1.328;2024-02-23T04:23:44;6.05;;;1.08;;
22363;SDS011;11349;53.412;-1.328;2024-02-23T04:26:10;3.63;;;0.70;;
22363;SDS011;11349;53.412;-1.328;2024-02-23T04:28:39;2.53;;;0.60;;
22363;SDS011;11349;53.412;-1.328;2024-02-23T04:31:05;8.35;;;1.52;;
22363;SDS011;11349;53.412;-1.328;2024-02-23T04:33:33;3.45;;;0.70;;
22363;SDS011;11349;53.412;-1.328;2024-02-23T04:36:00;2.60;;;0.68;;
22363;SDS011;11349;53.412;-1.328;2024-02-23T04:38:26;4.03;;;1.00;;
22363;SDS011;11349;53.412;-1.328;2024-02-23T04:40:51;4.53;;;0.88;;
22363;SDS011;11349;53.412;-1.328;2024-02-23T04:43:17;6.07;;;1.05;;
22363;SDS011;11349;53.412;-1.328;2024-02-23T04:45:43;4.05;;;0.82;;
22363;SDS011;11349;53.412;-1.328;2024-02-23T04:48:08;3.70;;;0.93;;
22363;SDS011;11349;53.412;-1.328;2024-02-23T04:50:34;3.72;;;0.80;;
22363;SDS011;11349;53.412;-1.328;2024-02-23T04:53:00;5.97;;;1.67;;
22363;SDS011;11349;53.412;-1.328;2024-02-23T04:55:26;4.07;;;0.93;;
22363;SDS011;11349;53.412;-1.328;2024-02-23T04:57:51;6.25;;;1.35;;
22363;SDS011;11349;53.412;-1.328;2024-02-23T05:00:17;3.65;;;0.90;;
22363;SDS011;11349;53.412;-1.328;2024-02-23T05:02:44;4.43;;;1.20;;
22363;SDS011;11349;53.412;-1.328;2024-02-23T05:05:14;3.83;;;1.00;;
22363;SDS011;11349;53.412;-1.328;2024-02-23T05:07:40;7.88;;;1.13;;
22363;SDS011;11349;53.412;-1.328;2024-02-23T05:10:06;6.00;;;1.08;;
22363;SDS011;11349;53.412;-1.328;2024-02-23T05:12:32;5.25;;;1.00;;
22363;SDS011;11349;53.412;-1.328;2024-02-23T05:14:57;6.20;;;1.63;;
22363;SDS011;11349;53.412;-1.328;2024-02-23T05:17:23;4.50;;;0.80;;
22363;SDS011;11349;53.412;-1.328;2024-02-23T05:19:49;5.70;;;1.40;;
22363;SDS011;11349;53.412;-1.328;2024-02-23T05:22:15;5.60;;;1.20;;
22363;SDS011;11349;53.412;-1.328;2024-02-23T05:24:40;7.03;;;1.30;;
22363;SDS011;11349;53.412;-1.328;2024-02-23T05:27:06;5.30;;;1.33;;
22363;SDS011;11349;53.412;-1.328;2024-02-23T05:29:32;3.10;;;1.10;;
22363;SDS011;11349;53.412;-1.328;2024-02-23T05:31:57;3.30;;;1.25;;
22363;SDS011;11349;53.412;-1.328;2024-02-23T05:34:24;5.15;;;0.82;;
22363;SDS011;11349;53.412;-1.328;2024-02-23T05:36:49;2.80;;;0.90;;
22363;SDS011;11349;53.412;-1.328;2024-02-23T05:39:16;3.47;;;1.00;;
22363;SDS011;11349;53.412;-1.328;2024-02-23T05:41:42;5.47;;;1.08;;
22363;SDS011;11349;53.412;-1.328;2024-02-23T05:44:09;3.10;;;1.00;;
22363;SDS011;11349;53.412;-1.328;2024-02-23T05:46:35;5.05;;;1.35;;
22363;SDS011;11349;53.412;-1.328;2024-02-23T05:49:01;3.88;;;1.08;;
22363;SDS011;11349;53.412;-1.328;2024-02-23T05:51:29;4.45;;;1.52;;
22363;SDS011;11349;53.412;-1.328;2024-02-23T05:53:55;6.13;;;1.17;;
22363;SDS011;11349;53.412;-1.328;2024-02-23T05:56:21;4.10;;;1.00;;
22363;SDS011;11349;53.412;-1.328;2024-02-23T05:58:49;4.55;;;1.00;;
22363;SDS011;11349;53.412;-1.328;2024-02-23T06:01:14;4.65;;;1.40;;
22363;SDS011;11349;53.412;-1.328;2024-02-23T06:03:40;5.22;;;1.23;;
22363;SDS011;11349;53.412;-1.328;2024-02-23T06:06:09;4.00;;;1.20;;
22363;SDS011;11349;53.412;-1.328;2024-02-23T06:08:35;4.30;;;1.17;;
22363;SDS011;11349;53.412;-1.328;2024-02-23T06:11:01;3.22;;;1.10;;
22363;SDS011;11349;53.412;-1.328;2024-02-23T06:13:29;6.32;;;1.42;;
22363;SDS011;11349;53.412;-1.328;2024-02-23T06:15:55;4.22;;;1.15;;
22363;SDS011;11349;53.412;-1.328;2024-02-23T06:18:21;4.60;;;1.30;;
22363;SDS011;11349;53.412;-1.328;2024-02-23T06:20:46;9.02;;;1.60;;
22363;SDS011;11349;53.412;-1.328;2024-02-23T06:23:13;5.82;;;1.10;;
22363;SDS011;11349;53.412;-1.328;2024-02-23T06:25:38;5.28;;;1.20;;
22363;SDS011;11349;53.412;-1.328;2024-02-23T06:28:04;2.95;;;1.20;;
22363;SDS011;11349;53.412;-1.328;2024-02-23T06:30:31;4.72;;;0.90;;
22363;SDS011;11349;53.412;-1.328;2024-02-23T06:32:57;4.72;;;1.05;;
22363;SDS011;11349;53.412;-1.328;2024-02-23T06:35:23;3.85;;;1.50;;
22363;SDS011;11349;53.412;-1.328;2024-02-23T06:37:48;4.00;;;1.10;;
22363;SDS011;11349;53.412;-1.328;2024-02-23T06:40:14;4.85;;;1.20;;
22363;SDS011;11349;53.412;-1.328;2024-02-23T06:42:40;5.50;;;1.77;;
22363;SDS011;11349;53.412;-1.328;2024-02-23T06:45:06;4.50;;;1.40;;
22363;SDS011;11349;53.412;-1.328;2024-02-23T06:47:33;4.05;;;1.48;;
22363;SDS011;11349;53.412;-1.328;2024-02-23T06:49:59;3.80;;;1.45;;
22363;SDS011;11349;53.412;-1.328;2024-02-23T06:52:25;5.40;;;1.48;;
22363;SDS011;11349;53.412;-1.328;2024-02-23T06:54:51;3.95;;;1.38;;
22363;SDS011;11349;53.412;-1.328;2024-02-23T06:57:17;3.38;;;1.30;;
22363;SDS011;11349;53.412;-1.328;2024-02-23T06:59:43;5.60;;;2.00;;
22363;SDS011;11349;53.412;-1.328;2024-02-23T07:02:09;3.53;;;1.80;;
22363;SDS011;11349;53.412;-1.328;2024-02-23T07:04:35;8.50;;;1.60;;
22363;SDS011;11349;53.412;-1.328;2024-02-23T07:07:00;3.55;;;1.35;;
22363;SDS011;11349;53.412;-1.328;2024-02-23T07:09:32;3.63;;;1.48;;
22363;SDS011;11349;53.412;-1.328;2024-02-23T07:11:59;4.72;;;1.70;;
22363;SDS011;11349;53.412;-1.328;2024-02-23T07:14:24;7.88;;;2.08;;
22363;SDS011;11349;53.412;-1.328;2024-02-23T07:16:50;4.20;;;1.48;;
22363;SDS011;11349;53.412;-1.328;2024-02-23T07:19:19;4.05;;;2.13;;
22363;SDS011;11349;53.412;-1.328;2024-02-23T07:21:45;4.93;;;1.70;;
22363;SDS011;11349;53.412;-1.328;2024-02-23T07:24:11;5.18;;;1.90;;
22363;SDS011;11349;53.412;-1.328;2024-02-23T07:26:38;3.95;;;1.90;;
22363;SDS011;11349;53.412;-1.328;2024-02-23T07:29:03;2.95;;;1.30;;
22363;SDS011;11349;53.412;-1.328;2024-02-23T07:31:29;3.65;;;2.05;;
22363;SDS011;11349;53.412;-1.328;2024-02-23T07:33:55;3.83;;;1.90;;
22363;SDS011;11349;53.412;-1.328;2024-02-23T07:36:20;5.10;;;1.60;;
22363;SDS011;11349;53.412;-1.328;2024-02-23T07:38:47;4.15;;;1.88;;
22363;SDS011;11349;53.412;-1.328;2024-02-23T07:41:14;6.95;;;2.20;;
22363;SDS011;11349;53.412;-1.328;2024-02-23T07:43:40;4.68;;;2.40;;
22363;SDS011;11349;53.412;-1.328;2024-02-23T07:46:06;3.50;;;1.50;;
22363;SDS011;11349;53.412;-1.328;2024-02-23T07:48:34;5.50;;;1.80;;
22363;SDS011;11349;53.412;-1.328;2024-02-23T07:51:01;3.80;;;1.70;;
22363;SDS011;11349;53.412;-1.328;2024-02-23T07:53:28;4.80;;;1.98;;
22363;SDS011;11349;53.412;-1.328;2024-02-23T07:55:53;5.35;;;1.60;;
22363;SDS011;11349;53.412;-1.328;2024-02-23T07:58:19;4.15;;;1.83;;
22363;SDS011;11349;53.412;-1.328;2024-02-23T08:00:46;4.93;;;1.83;;
22363;SDS011;11349;53.412;-1.328;2024-02-23T08:03:12;2.92;;;1.27;;
22363;SDS011;11349;53.412;-1.328;2024-02-23T08:05:37;5.53;;;1.40;;
22363;SDS011;11349;53.412;-1.328;2024-02-23T08:08:03;6.38;;;1.50;;
22363;SDS011;11349;53.412;-1.328;2024-02-23T08:10:29;5.55;;;1.20;;
22363;SDS011;11349;53.412;-1.328;2024-02-23T08:12:55;3.05;;;1.38;;
22363;SDS011;11349;53.412;-1.328;2024-02-23T08:15:21;2.65;;;1.27;;
22363;SDS011;11349;53.412;-1.328;2024-02-23T08:17:46;3.97;;;1.48;;
22363;SDS011;11349;53.412;-1.328;2024-02-23T08:20:12;2.90;;;1.00;;
22363;SDS011;11349;53.412;-1.328;2024-02-23T08:22:38;4.32;;;1.48;;
22363;SDS011;11349;53.412;-1.328;2024-02-23T08:25:03;4.07;;;1.40;;
22363;SDS011;11349;53.412;-1.328;2024-02-23T08:27:29;2.55;;;1.30;;
22363;SDS011;11349;53.412;-1.328;2024-02-23T08:29:55;3.92;;;1.40;;
22363;SDS011;11349;53.412;-1.328;2024-02-23T08:32:21;4.15;;;1.42;;
22363;SDS011;11349;53.412;-1.328;2024-02-23T08:34:46;5.25;;;1.85;;
22363;SDS011;11349;53.412;-1.328;2024-02-23T08:37:12;5.07;;;2.00;;
22363;SDS011;11349;53.412;-1.328;2024-02-23T08:39:38;3.42;;;1.60;;
22363;SDS011;11349;53.412;-1.328;2024-02-23T08:42:04;4.35;;;1.90;;
22363;SDS011;11349;53.412;-1.328;2024-02-23T08:44:29;3.30;;;1.50;;
22363;SDS011;11349;53.412;-1.328;2024-02-23T08:46:55;4.65;;;1.60;;
22363;SDS011;11349;53.412;-1.328;2024-02-23T08:49:21;4.93;;;2.00;;
22363;SDS011;11349;53.412;-1.328;2024-02-23T08:51:47;6.20;;;1.80;;
22363;SDS011;11349;53.412;-1.328;2024-02-23T08:54:13;3.75;;;2.13;;
22363;SDS011;11349;53.412;-1.328;2024-02-23T08:56:39;5.53;;;1.90;;
22363;SDS011;11349;53.412;-1.328;2024-02-23T08:59:07;4.75;;;2.00;;
22363;SDS011;11349;53.412;-1.328;2024-02-23T09:01:35;4.95;;;2.28;;
22363;SDS011;11349;53.412;-1.328;2024-02-23T09:04:01;4.93;;;1.83;;
22363;SDS011;11349;53.412;-1.328;2024-02-23T09:06:27;6.60;;;2.00;;
22363;SDS011;11349;53.412;-1.328;2024-02-23T09:08:53;7.05;;;1.80;;
22363;SDS011;11349;53.412;-1.328;2024-02-23T09:11:19;6.40;;;2.05;;
22363;SDS011;11349;53.412;-1.328;2024-02-23T09:13:44;7.05;;;2.05;;
22363;SDS011;11349;53.412;-1.328;2024-02-23T09:16:10;6.28;;;1.95;;
22363;SDS011;11349;53.412;-1.328;2024-02-23T09:18:36;7.05;;;3.08;;
22363;SDS011;11349;53.412;-1.328;2024-02-23T09:21:01;4.28;;;1.90;;
22363;SDS011;11349;53.412;-1.328;2024-02-23T09:23:27;7.22;;;2.03;;
22363;SDS011;11349;53.412;-1.328;2024-02-23T09:25:53;4.28;;;1.83;;
22363;SDS011;11349;53.412;-1.328;2024-02-23T09:28:18;4.68;;;1.45;;
22363;SDS011;11349;53.412;-1.328;2024-02-23T09:30:45;4.72;;;1.60;;
22363;SDS011;11349;53.412;-1.328;2024-02-23T09:33:11;6.25;;;1.20;;
22363;SDS011;11349;53.412;-1.328;2024-02-23T09:35:37;4.68;;;1.35;;
22363;SDS011;11349;53.412;-1.328;2024-02-23T09:38:03;4.57;;;1.00;;
22363;SDS011;11349;53.412;-1.328;2024-02-23T09:40:29;5.18;;;1.45;;
22363;SDS011;11349;53.412;-1.328;2024-02-23T09:42:58;4.60;;;1.10;;
22363;SDS011;11349;53.412;-1.328;2024-02-23T09:45:24;5.38;;;1.10;;
22363;SDS011;11349;53.412;-1.328;2024-02-23T09:47:52;4.80;;;1.02;;
22363;SDS011;11349;53.412;-1.328;2024-02-23T09:50:20;5.57;;;1.10;;
22363;SDS011;11349;53.412;-1.328;2024-02-23T09:52:48;3.30;;;1.02;;
22363;SDS011;11349;53.412;-1.328;2024-02-23T09:55:16;4.07;;;1.05;;
22363;SDS011;11349;53.412;-1.328;2024-02-23T09:57:43;8.13;;;1.75;;
22363;SDS011;11349;53.412;-1.328;2024-02-23T10:00:11;5.88;;;1.35;;
22363;SDS011;11349;53.412;-1.328;2024-02-23T10:02:37;4.88;;;1.38;;
22363;SDS011;11349;53.412;-1.328;2024-02-23T10:05:04;2.20;;;0.90;;
22363;SDS011;11349;53.412;-1.328;2024-02-23T10:07:32;6.88;;;1.35;;
22363;SDS011;11349;53.412;-1.328;2024-02-23T10:09:58;2.55;;;0.85;;
22363;SDS011;11349;53.412;-1.328;2024-02-23T10:12:24;2.30;;;0.70;;
22363;SDS011;11349;53.412;-1.328;2024-02-23T10:14:49;2.25;;;0.70;;
22363;SDS011;11349;53.412;-1.328;2024-02-23T10:17:15;2.17;;;0.60;;
22363;SDS011;11349;53.412;-1.328;2024-02-23T10:19:41;5.18;;;1.00;;
22363;SDS011;11349;53.412;-1.328;2024-02-23T10:22:06;4.57;;;1.40;;
22363;SDS011;11349;53.412;-1.328;2024-02-23T10:24:32;4.95;;;1.15;;
22363;SDS011;11349;53.412;-1.328;2024-02-23T10:26:58;7.07;;;1.58;;
22363;SDS011;11349;53.412;-1.328;2024-02-23T10:29:26;6.65;;;2.00;;
22363;SDS011;11349;53.412;-1.328;2024-02-23T10:31:52;6.88;;;2.03;;
22363;SDS011;11349;53.412;-1.328;2024-02-23T10:34:21;7.15;;;1.90;;
22363;SDS011;11349;53.412;-1.328;2024-02-23T10:36:49;8.68;;;2.10;;
22363;SDS011;11349;53.412;-1.328;2024-02-23T10:39:16;8.15;;;2.45;;
22363;SDS011;11349;53.412;-1.328;2024-02-23T10:41:46;9.13;;;2.65;;
22363;SDS011;11349;53.412;-1.328;2024-02-23T10:44:18;8.77;;;2.55;;
22363;SDS011;11349;53.412;-1.328;2024-02-23T10:46:44;8.68;;;2.30;;
22363;SDS011;11349;53.412;-1.328;2024-02-23T10:49:10;7.55;;;2.40;;
22363;SDS011;11349;53.412;-1.328;2024-02-23T10:51:38;11.07;;;2.55;;
22363;SDS011;11349;53.412;-1.328;2024-02-23T10:54:05;6.72;;;1.90;;
22363;SDS011;11349;53.412;-1.328;2024-02-23T10:56:31;4.47;;;1.95;;
22363;SDS011;11349;53.412;-1.328;2024-02-23T10:58:57;5.78;;;2.08;;
22363;SDS011;11349;53.412;-1.328;2024-02-23T11:01:23;8.98;;;2.58;;
22363;SDS011;11349;53.412;-1.328;2024-02-23T11:03:50;6.80;;;2.10;;
22363;SDS011;11349;53.412;-1.328;2024-02-23T11:06:18;13.10;;;1.80;;
22363;SDS011;11349;53.412;-1.328;2024-02-23T11:08:46;4.53;;;1.25;;
22363;SDS011;11349;53.412;-1.328;2024-02-23T11:11:16;5.30;;;1.55;;
22363;SDS011;11349;53.412;-1.328;2024-02-23T11:13:43;5.68;;;1.48;;
22363;SDS011;11349;53.412;-1.328;2024-02-23T11:16:09;4.03;;;1.38;;
22363;SDS011;11349;53.412;-1.328;2024-02-23T11:18:35;5.03;;;1.00;;
22363;SDS011;11349;53.412;-1.328;2024-02-23T11:21:03;10.15;;;1.85;;
22363;SDS011;11349;53.412;-1.328;2024-02-23T11:26:12;4.78;;;1.48;;
22363;SDS011;11349;53.412;-1.328;2024-02-23T11:28:41;3.70;;;1.63;;
22363;SDS011;11349;53.412;-1.328;2024-02-23T11:31:24;8.02;;;1.63;;
22363;SDS011;11349;53.412;-1.328;2024-02-23T11:33:54;7.88;;;1.75;;
22363;SDS011;11349;53.412;-1.328;2024-02-23T11:36:30;7.55;;;2.13;;
22363;SDS011;11349;53.412;-1.328;2024-02-23T11:38:58;8.98;;;1.98;;
22363;SDS011;11349;53.412;-1.328;2024-02-23T11:41:25;6.63;;;2.05;;
22363;SDS011;11349;53.412;-1.328;2024-02-23T11:43:53;7.75;;;1.60;;
22363;SDS011;11349;53.412;-1.328;2024-02-23T11:46:23;3.53;;;1.95;;
22363;SDS011;11349;53.412;-1.328;2024-02-23T11:48:49;5.32;;;1.58;;
22363;SDS011;11349;53.412;-1.328;2024-02-23T11:51:21;4.93;;;1.48;;
22363;SDS011;11349;53.412;-1.328;2024-02-23T11:53:48;7.28;;;1.92;;
22363;SDS011;11349;53.412;-1.328;2024-02-23T11:56:14;4.13;;;1.30;;
22363;SDS011;11349;53.412;-1.328;2024-02-23T11:58:41;5.43;;;1.30;;
22363;SDS011;11349;53.412;-1.328;2024-02-23T12:01:07;6.05;;;1.67;;
22363;SDS011;11349;53.412;-1.328;2024-02-23T12:03:34;3.95;;;1.30;;
22363;SDS011;11349;53.412;-1.328;2024-02-23T12:06:00;4.00;;;1.70;;
22363;SDS011;11349;53.412;-1.328;2024-02-23T12:08:27;4.60;;;1.48;;
22363;SDS011;11349;53.412;-1.328;2024-02-23T12:10:54;2.92;;;1.20;;
22363;SDS011;11349;53.412;-1.328;2024-02-23T12:13:21;4.00;;;1.33;;
22363;SDS011;11349;53.412;-1.328;2024-02-23T12:15:47;5.75;;;1.30;;
22363;SDS011;11349;53.412;-1.328;2024-02-23T12:18:17;3.78;;;1.10;;
22363;SDS011;11349;53.412;-1.328;2024-02-23T12:20:48;3.92;;;0.90;;
22363;SDS011;11349;53.412;-1.328;2024-02-23T12:23:14;4.70;;;0.77;;
22363;SDS011;11349;53.412;-1.328;2024-02-23T12:25:41;5.40;;;1.58;;
22363;SDS011;11349;53.412;-1.328;2024-02-23T12:28:18;5.78;;;1.60;;
22363;SDS011;11349;53.412;-1.328;2024-02-23T12:30:44;6.95;;;1.70;;
22363;SDS011;11349;53.412;-1.328;2024-02-23T12:33:12;8.80;;;2.40;;
22363;SDS011;11349;53.412;-1.328;2024-02-23T12:35:41;7.10;;;2.20;;
22363;SDS011;11349;53.412;-1.328;2024-02-23T12:38:06;6.40;;;2.10;;
22363;SDS011;11349;53.412;-1.328;2024-02-23T12:40:32;8.23;;;2.15;;
22363;SDS011;11349;53.412;-1.328;2024-02-23T12:42:58;9.57;;;2.15;;
22363;SDS011;11349;53.412;-1.328;2024-02-23T12:45:24;6.93;;;2.10;;
22363;SDS011;11349;53.412;-1.328;2024-02-23T12:47:50;5.60;;;1.80;;
22363;SDS011;11349;53.412;-1.328;2024-02-23T12:50:15;7.80;;;2.45;;
22363;SDS011;11349;53.412;-1.328;2024-02-23T12:52:41;7.88;;;2.53;;
22363;SDS011;11349;53.412;-1.328;2024-02-23T12:55:08;9.77;;;2.30;;
22363;SDS011;11349;53.412;-1.328;2024-02-23T12:57:34;7.32;;;2.28;;
22363;SDS011;11349;53.412;-1.328;2024-02-23T12:59:59;7.00;;;1.50;;
22363;SDS011;11349;53.412;-1.328;2024-02-23T13:02:25;8.40;;;2.17;;
22363;SDS011;11349;53.412;-1.328;2024-02-23T13:04:51;8.52;;;1.70;;
22363;SDS011;11349;53.412;-1.328;2024-02-23T13:07:17;6.25;;;1.40;;
22363;SDS011;11349;53.412;-1.328;2024-02-23T13:09:43;5.45;;;0.80;;
22363;SDS011;11349;53.412;-1.328;2024-02-23T13:12:09;4.88;;;1.13;;
22363;SDS011;11349;53.412;-1.328;2024-02-23T13:14:34;4.20;;;1.00;;
22363;SDS011;11349;53.412;-1.328;2024-02-23T13:17:00;4.85;;;1.00;;
22363;SDS011;11349;53.412;-1.328;2024-02-23T13:19:26;6.13;;;0.75;;
22363;SDS011;11349;53.412;-1.328;2024-02-23T13:21:52;5.32;;;0.90;;
22363;SDS011;11349;53.412;-1.328;2024-02-23T13:24:18;4.32;;;0.80;;
22363;SDS011;11349;53.412;-1.328;2024-02-23T13:26:44;6.38;;;1.95;;
22363;SDS011;11349;53.412;-1.328;2024-02-23T13:29:10;3.38;;;0.82;;
22363;SDS011;11349;53.412;-1.328;2024-02-23T13:31:35;4.10;;;1.13;;
22363;SDS011;11349;53.412;-1.328;2024-02-23T13:34:03;5.20;;;0.88;;
22363;SDS011;11349;53.412;-1.328;2024-02-23T13:36:29;4.88;;;0.70;;
22363;SDS011;11349;53.412;-1.328;2024-02-23T13:38:54;1.98;;;0.88;;
22363;SDS011;11349;53.412;-1.328;2024-02-23T13:41:20;6.32;;;1.08;;
22363;SDS011;11349;53.412;-1.328;2024-02-23T13:43:46;2.42;;;0.75;;
22363;SDS011;11349;53.412;-1.328;2024-02-23T13:46:11;2.90;;;0.55;;
22363;SDS011;11349;53.412;-1.328;2024-02-23T13:48:37;4.60;;;1.00;;
22363;SDS011;11349;53.412;-1.328;2024-02-23T13:51:03;4.82;;;1.13;;
22363;SDS011;11349;53.412;-1.328;2024-02-23T13:53:30;3.95;;;1.20;;
22363;SDS011;11349;53.412;-1.328;2024-02-23T13:55:57;4.95;;;1.10;;
22363;SDS011;11349;53.412;-1.328;2024-02-23T13:58:23;1.98;;;0.90;;
22363;SDS011;11349;53.412;-1.328;2024-02-23T14:00:49;2.00;;;0.80;;
22363;SDS011;11349;53.412;-1.328;2024-02-23T14:03:18;1.80;;;0.73;;
22363;SDS011;11349;53.412;-1.328;2024-02-23T14:05:44;4.03;;;1.42;;
22363;SDS011;11349;53.412;-1.328;2024-02-23T14:08:11;4.97;;;1.55;;
22363;SDS011;11349;53.412;-1.328;2024-02-23T14:10:37;5.40;;;1.38;;
22363;SDS011;11349;53.412;-1.328;2024-02-23T14:13:02;7.20;;;1.83;;
22363;SDS011;11349;53.412;-1.328;2024-02-23T14:15:28;5.80;;;1.67;;
22363;SDS011;11349;53.412;-1.328;2024-02-23T14:17:54;9.27;;;1.20;;
22363;SDS011;11349;53.412;-1.328;2024-02-23T14:20:20;4.45;;;1.40;;
22363;SDS011;11349;53.412;-1.328;2024-02-23T14:22:46;4.75;;;1.33;;
22363;SDS011;11349;53.412;-1.328;2024-02-23T14:25:11;5.88;;;1.13;;
22363;SDS011;11349;53.412;-1.328;2024-02-23T14:27:37;4.22;;;1.50;;
22363;SDS011;11349;53.412;-1.328;2024-02-23T14:30:03;2.90;;;1.17;;
22363;SDS011;11349;53.412;-1.328;2024-02-23T14:32:29;3.45;;;0.90;;